RYR2580 LTAC-EKCH
Flight info
| Callsign | RYR2580 |
|---|---|
| Flight time | 3h 14m |
| Altitude | 36000 |
| Route | DEREL1T/03L DEREL UL602 MAKOL DCT KARIL DCT KENIN DCT LENOV DCT RONEX DCT ROE M743 TIDVU TIDVU2C |
| Aircraft | B738/M-ICAO/L |
Departure
| Time | 2026-05-04 16:36 |
|---|---|
| Airport | Esenboğa International Airport (LTAC) |
Arrival
| Time | 2026-05-04 19:50 |
|---|---|
| Airport | Copenhagen Kastrup Airport (EKCH) |
| Time | Latitude | Longitude | Altitude | Speed | Heading |
|---|---|---|---|---|---|
| 2026-05-04 16:03 | 40.11630 | 32.99166 | 3127 ft | 0 kts | 151° |
| 2026-05-04 16:26 | 40.11638 | 32.99160 | 3126 ft | 2 kts | 148° |
| 2026-05-04 16:26 | 40.11663 | 32.99113 | 3125 ft | 2 kts | 102° |
| 2026-05-04 16:27 | 40.11663 | 32.99075 | 3124 ft | 2 kts | 73° |
| 2026-05-04 16:28 | 40.11653 | 32.99050 | 3124 ft | 0 kts | 56° |
| 2026-05-04 16:31 | 40.11665 | 32.99074 | 3124 ft | 4 kts | 57° |
| 2026-05-04 16:31 | 40.11760 | 32.99104 | 3125 ft | 11 kts | 322° |
| 2026-05-04 16:32 | 40.11691 | 32.98895 | 3121 ft | 9 kts | 223° |
| 2026-05-04 16:33 | 40.11721 | 32.98777 | 3119 ft | 0 kts | 306° |
| 2026-05-04 16:33 | 40.11726 | 32.98769 | 3118 ft | 4 kts | 306° |
| 2026-05-04 16:34 | 40.11830 | 32.98585 | 3115 ft | 18 kts | 306° |
| 2026-05-04 16:34 | 40.11929 | 32.98508 | 3113 ft | 16 kts | 32° |
| 2026-05-04 16:35 | 40.12126 | 32.98697 | 3115 ft | 48 kts | 37° |
| 2026-05-04 16:35 | 40.14367 | 33.00864 | 3274 ft | 192 kts | 34° |
| 2026-05-04 16:36 | 40.15389 | 33.01916 | 4073 ft | 189 kts | 37° |
| 2026-05-04 16:36 | 40.17495 | 33.04137 | 5124 ft | 205 kts | 36° |
| 2026-05-04 16:37 | 40.19922 | 33.06525 | 5798 ft | 232 kts | 22° |
| 2026-05-04 16:37 | 40.21525 | 33.06920 | 6207 ft | 242 kts | 353° |
| 2026-05-04 16:37 | 40.23901 | 33.05641 | 6895 ft | 262 kts | 324° |
| 2026-05-04 16:38 | 40.25323 | 33.03796 | 7556 ft | 270 kts | 311° |
| 2026-05-04 16:39 | 40.28887 | 32.97856 | 9396 ft | 287 kts | 309° |
| 2026-05-04 16:39 | 40.29530 | 32.96784 | 9814 ft | 286 kts | 309° |
| 2026-05-04 16:40 | 40.32075 | 32.92526 | 10671 ft | 310 kts | 309° |
| 2026-05-04 16:40 | 40.34795 | 32.87970 | 11665 ft | 328 kts | 308° |
| 2026-05-04 16:41 | 40.37482 | 32.83173 | 13025 ft | 332 kts | 307° |
| 2026-05-04 16:41 | 40.41487 | 32.75644 | 14893 ft | 342 kts | 307° |
| 2026-05-04 16:42 | 40.45511 | 32.67831 | 16719 ft | 346 kts | 306° |
| 2026-05-04 16:43 | 40.48403 | 32.62624 | 17549 ft | 360 kts | 310° |
| 2026-05-04 16:43 | 40.51316 | 32.57375 | 18794 ft | 361 kts | 308° |
| 2026-05-04 16:43 | 40.52753 | 32.54670 | 19393 ft | 361 kts | 309° |
| 2026-05-04 16:44 | 40.58516 | 32.43739 | 21462 ft | 367 kts | 311° |
| 2026-05-04 16:45 | 40.61440 | 32.38217 | 22392 ft | 371 kts | 311° |
| 2026-05-04 16:46 | 40.65894 | 32.29802 | 23626 ft | 379 kts | 312° |
| 2026-05-04 16:46 | 40.68906 | 32.24101 | 24388 ft | 382 kts | 313° |
| 2026-05-04 16:47 | 40.71939 | 32.18337 | 25111 ft | 385 kts | 313° |
| 2026-05-04 16:47 | 40.74918 | 32.12440 | 25790 ft | 391 kts | 311° |
| 2026-05-04 16:48 | 40.79369 | 32.03391 | 26655 ft | 399 kts | 313° |
| 2026-05-04 16:48 | 40.80878 | 32.00337 | 27082 ft | 397 kts | 312° |
| 2026-05-04 16:49 | 40.83933 | 31.94147 | 27546 ft | 405 kts | 313° |
| 2026-05-04 16:49 | 40.86464 | 31.89010 | 28078 ft | 407 kts | 313° |
| 2026-05-04 16:50 | 40.90094 | 31.81663 | 28652 ft | 413 kts | 313° |
| 2026-05-04 16:50 | 40.93228 | 31.75294 | 29159 ft | 417 kts | 313° |
| 2026-05-04 16:51 | 40.96401 | 31.68827 | 29619 ft | 422 kts | 313° |
| 2026-05-04 16:51 | 40.97982 | 31.65605 | 29991 ft | 421 kts | 313° |
| 2026-05-04 16:51 | 41.01201 | 31.59034 | 30333 ft | 428 kts | 313° |
| 2026-05-04 16:52 | 41.04407 | 31.52455 | 30920 ft | 428 kts | 312° |
| 2026-05-04 16:52 | 41.06026 | 31.49134 | 31114 ft | 430 kts | 311° |
| 2026-05-04 16:53 | 41.09266 | 31.42484 | 31511 ft | 433 kts | 311° |
| 2026-05-04 16:53 | 41.14184 | 31.32371 | 32140 ft | 438 kts | 310° |
| 2026-05-04 16:54 | 41.15821 | 31.28989 | 32356 ft | 439 kts | 310° |
| 2026-05-04 16:55 | 41.22422 | 31.15319 | 33196 ft | 443 kts | 309° |
| 2026-05-04 16:55 | 41.25745 | 31.08408 | 33516 ft | 446 kts | 309° |
| 2026-05-04 16:56 | 41.29079 | 31.01459 | 33897 ft | 448 kts | 308° |
| 2026-05-04 16:56 | 41.34118 | 30.90933 | 34474 ft | 448 kts | 308° |
| 2026-05-04 16:57 | 41.35775 | 30.87464 | 34673 ft | 447 kts | 308° |
| 2026-05-04 16:57 | 41.39104 | 30.80485 | 34963 ft | 446 kts | 308° |
| 2026-05-04 16:58 | 41.44028 | 30.70145 | 35642 ft | 438 kts | 307° |
| 2026-05-04 16:58 | 41.45661 | 30.66728 | 35822 ft | 436 kts | 307° |
| 2026-05-04 16:59 | 41.48949 | 30.59887 | 35955 ft | 440 kts | 308° |
| 2026-05-04 17:00 | 41.55590 | 30.46032 | 35951 ft | 447 kts | 308° |
| 2026-05-04 17:01 | 41.63871 | 30.28608 | 35990 ft | 445 kts | 307° |
| 2026-05-04 17:02 | 41.70482 | 30.14659 | 35975 ft | 445 kts | 307° |
| 2026-05-04 17:03 | 41.75393 | 30.04242 | 35997 ft | 444 kts | 307° |
| 2026-05-04 17:03 | 41.80299 | 29.93775 | 35986 ft | 441 kts | 307° |
| 2026-05-04 17:04 | 41.86830 | 29.79811 | 35978 ft | 444 kts | 307° |
| 2026-05-04 17:05 | 41.93345 | 29.65820 | 35994 ft | 443 kts | 307° |
| 2026-05-04 17:06 | 41.98200 | 29.55347 | 35999 ft | 441 kts | 308° |
| 2026-05-04 17:07 | 42.01976 | 29.47178 | 36019 ft | 442 kts | 308° |
| 2026-05-04 17:07 | 42.06311 | 29.37787 | 36010 ft | 443 kts | 307° |
| 2026-05-04 17:08 | 42.11149 | 29.27252 | 36012 ft | 443 kts | 307° |
| 2026-05-04 17:09 | 42.14415 | 29.20151 | 36022 ft | 444 kts | 307° |
| 2026-05-04 17:09 | 42.18018 | 29.13570 | 36018 ft | 433 kts | 319° |
| 2026-05-04 17:10 | 42.29565 | 29.00898 | 36036 ft | 428 kts | 328° |
| 2026-05-04 17:11 | 42.34321 | 28.96059 | 36034 ft | 428 kts | 327° |
| 2026-05-04 17:12 | 42.41414 | 28.88675 | 36037 ft | 429 kts | 327° |
| 2026-05-04 17:13 | 42.53175 | 28.76230 | 36041 ft | 429 kts | 326° |
| 2026-05-04 17:14 | 42.62556 | 28.66243 | 36040 ft | 429 kts | 326° |
| 2026-05-04 17:15 | 42.69592 | 28.58728 | 36039 ft | 430 kts | 326° |
| 2026-05-04 17:16 | 42.78978 | 28.48669 | 36041 ft | 430 kts | 326° |
| 2026-05-04 17:17 | 42.88368 | 28.38559 | 36041 ft | 429 kts | 326° |
| 2026-05-04 17:18 | 42.97738 | 28.28441 | 36043 ft | 430 kts | 325° |
| 2026-05-04 17:19 | 43.07080 | 28.18298 | 36046 ft | 429 kts | 325° |
| 2026-05-04 17:20 | 43.16453 | 28.08098 | 36041 ft | 431 kts | 325° |
| 2026-05-04 17:20 | 43.23471 | 28.00423 | 36053 ft | 430 kts | 324° |
| 2026-05-04 17:21 | 43.32829 | 27.90144 | 36049 ft | 430 kts | 324° |
| 2026-05-04 17:22 | 43.37485 | 27.85018 | 36052 ft | 430 kts | 324° |
| 2026-05-04 17:23 | 43.46830 | 27.74719 | 36047 ft | 430 kts | 324° |
| 2026-05-04 17:24 | 43.53838 | 27.66952 | 36042 ft | 430 kts | 324° |
| 2026-05-04 17:25 | 43.63165 | 27.56587 | 36042 ft | 431 kts | 324° |
| 2026-05-04 17:26 | 43.72438 | 27.46234 | 36034 ft | 430 kts | 323° |
| 2026-05-04 17:27 | 43.84063 | 27.33199 | 36038 ft | 431 kts | 323° |
| 2026-05-04 17:28 | 43.93387 | 27.22696 | 36036 ft | 430 kts | 322° |
| 2026-05-04 17:29 | 44.07308 | 27.06929 | 36033 ft | 430 kts | 322° |
| 2026-05-04 17:31 | 44.18852 | 26.93785 | 36029 ft | 430 kts | 322° |
| 2026-05-04 17:32 | 44.30392 | 26.80573 | 36030 ft | 430 kts | 322° |
| 2026-05-04 17:33 | 44.39591 | 26.69992 | 36032 ft | 429 kts | 322° |
| 2026-05-04 17:34 | 44.48776 | 26.59380 | 36036 ft | 429 kts | 321° |
| 2026-05-04 17:35 | 44.60247 | 26.46069 | 36041 ft | 428 kts | 321° |
| 2026-05-04 17:36 | 44.64838 | 26.40722 | 36042 ft | 429 kts | 321° |
| 2026-05-04 17:36 | 44.69418 | 26.35383 | 36042 ft | 430 kts | 321° |
| 2026-05-04 17:37 | 44.73994 | 26.30029 | 36042 ft | 428 kts | 320° |
| 2026-05-04 17:37 | 44.78565 | 26.24665 | 36046 ft | 429 kts | 320° |
| 2026-05-04 17:38 | 44.83148 | 26.19280 | 36040 ft | 429 kts | 320° |
| 2026-05-04 17:38 | 44.87689 | 26.13934 | 36050 ft | 430 kts | 320° |
| 2026-05-04 17:39 | 44.94550 | 26.05835 | 36041 ft | 429 kts | 320° |
| 2026-05-04 17:39 | 44.99121 | 26.00424 | 36054 ft | 430 kts | 320° |
| 2026-05-04 17:40 | 45.03686 | 25.95008 | 36051 ft | 429 kts | 320° |
| 2026-05-04 17:40 | 45.08245 | 25.89588 | 36067 ft | 430 kts | 320° |
| 2026-05-04 17:41 | 45.12808 | 25.84152 | 36068 ft | 429 kts | 320° |
| 2026-05-04 17:41 | 45.17345 | 25.78737 | 36081 ft | 428 kts | 320° |
| 2026-05-04 17:42 | 45.21911 | 25.73275 | 36085 ft | 429 kts | 320° |
| 2026-05-04 17:42 | 45.26450 | 25.67833 | 36094 ft | 429 kts | 320° |
| 2026-05-04 17:43 | 45.31000 | 25.62364 | 36097 ft | 429 kts | 320° |
| 2026-05-04 17:43 | 45.35535 | 25.56903 | 36103 ft | 429 kts | 320° |
| 2026-05-04 17:44 | 45.40066 | 25.51434 | 36100 ft | 428 kts | 320° |
| 2026-05-04 17:44 | 45.44599 | 25.45952 | 36102 ft | 428 kts | 320° |
| 2026-05-04 17:45 | 45.49124 | 25.40468 | 36107 ft | 429 kts | 320° |
| 2026-05-04 17:45 | 45.53664 | 25.34954 | 36108 ft | 427 kts | 320° |
| 2026-05-04 17:46 | 45.58166 | 25.29474 | 36104 ft | 428 kts | 320° |
| 2026-05-04 17:46 | 45.62661 | 25.23990 | 36105 ft | 428 kts | 320° |
| 2026-05-04 17:47 | 45.67200 | 25.18440 | 36101 ft | 428 kts | 320° |
| 2026-05-04 17:47 | 45.71715 | 25.12907 | 36090 ft | 429 kts | 320° |
| 2026-05-04 17:48 | 45.76241 | 25.07348 | 36088 ft | 430 kts | 320° |
| 2026-05-04 17:48 | 45.80751 | 25.01797 | 36086 ft | 429 kts | 321° |
| 2026-05-04 17:49 | 45.85292 | 24.96195 | 36088 ft | 431 kts | 321° |
| 2026-05-04 17:49 | 45.89844 | 24.90569 | 36080 ft | 431 kts | 321° |
| 2026-05-04 17:50 | 45.94355 | 24.84981 | 36090 ft | 431 kts | 321° |
| 2026-05-04 17:50 | 45.98891 | 24.79348 | 36077 ft | 431 kts | 321° |
| 2026-05-04 17:51 | 46.03421 | 24.73708 | 36086 ft | 431 kts | 321° |
| 2026-05-04 17:51 | 46.07934 | 24.68077 | 36089 ft | 431 kts | 321° |
| 2026-05-04 17:52 | 46.12460 | 24.62418 | 36087 ft | 432 kts | 321° |
| 2026-05-04 17:52 | 46.16985 | 24.56747 | 36089 ft | 432 kts | 321° |
| 2026-05-04 17:53 | 46.21528 | 24.51041 | 36086 ft | 432 kts | 321° |
| 2026-05-04 17:53 | 46.26045 | 24.45353 | 36086 ft | 432 kts | 321° |
| 2026-05-04 17:54 | 46.30548 | 24.39672 | 36085 ft | 431 kts | 321° |
| 2026-05-04 17:54 | 46.35046 | 24.33983 | 36085 ft | 431 kts | 320° |
| 2026-05-04 17:55 | 46.39582 | 24.28234 | 36084 ft | 431 kts | 320° |
| 2026-05-04 17:55 | 46.44076 | 24.22527 | 36084 ft | 431 kts | 320° |
| 2026-05-04 17:56 | 46.48586 | 24.16788 | 36079 ft | 432 kts | 320° |
| 2026-05-04 17:56 | 46.53086 | 24.11046 | 36078 ft | 432 kts | 321° |
| 2026-05-04 17:57 | 46.57564 | 24.05318 | 36073 ft | 431 kts | 320° |
| 2026-05-04 17:57 | 46.62062 | 23.99550 | 36079 ft | 431 kts | 320° |
| 2026-05-04 17:58 | 46.66559 | 23.93772 | 36080 ft | 431 kts | 320° |
| 2026-05-04 17:58 | 46.71021 | 23.88025 | 36080 ft | 431 kts | 320° |
| 2026-05-04 17:59 | 46.75484 | 23.82266 | 36083 ft | 431 kts | 320° |
| 2026-05-04 18:00 | 46.82198 | 23.73577 | 36080 ft | 431 kts | 321° |
| 2026-05-04 18:00 | 46.86685 | 23.67748 | 36082 ft | 430 kts | 321° |
| 2026-05-04 18:01 | 46.91152 | 23.61934 | 36082 ft | 430 kts | 321° |
| 2026-05-04 18:01 | 46.95593 | 23.56144 | 36082 ft | 430 kts | 320° |
| 2026-05-04 18:02 | 47.02256 | 23.47427 | 36080 ft | 430 kts | 320° |
| 2026-05-04 18:02 | 47.06694 | 23.41606 | 36085 ft | 430 kts | 320° |
| 2026-05-04 18:03 | 47.11162 | 23.35733 | 36093 ft | 430 kts | 320° |
| 2026-05-04 18:03 | 47.15628 | 23.29846 | 36108 ft | 431 kts | 320° |
| 2026-05-04 18:04 | 47.20055 | 23.23996 | 36098 ft | 430 kts | 320° |
| 2026-05-04 18:05 | 47.26704 | 23.15185 | 36099 ft | 431 kts | 320° |
| 2026-05-04 18:05 | 47.30432 | 23.10230 | 36093 ft | 430 kts | 320° |
| 2026-05-04 18:06 | 47.37826 | 23.00378 | 36093 ft | 430 kts | 320° |
| 2026-05-04 18:06 | 47.42240 | 22.94477 | 36083 ft | 430 kts | 320° |
| 2026-05-04 18:07 | 47.46637 | 22.88587 | 36073 ft | 429 kts | 320° |
| 2026-05-04 18:07 | 47.51047 | 22.82660 | 36070 ft | 429 kts | 320° |
| 2026-05-04 18:08 | 47.55456 | 22.76730 | 36063 ft | 429 kts | 320° |
| 2026-05-04 18:08 | 47.59849 | 22.70804 | 36058 ft | 430 kts | 320° |
| 2026-05-04 18:09 | 47.68663 | 22.58863 | 36057 ft | 429 kts | 320° |
| 2026-05-04 18:10 | 47.73046 | 22.52906 | 36059 ft | 427 kts | 320° |
| 2026-05-04 18:10 | 47.77331 | 22.47134 | 36053 ft | 426 kts | 323° |
| 2026-05-04 18:11 | 47.82183 | 22.42216 | 36054 ft | 425 kts | 331° |
| 2026-05-04 18:11 | 47.87327 | 22.37848 | 36054 ft | 425 kts | 332° |
| 2026-05-04 18:12 | 47.92453 | 22.33453 | 36054 ft | 425 kts | 331° |
| 2026-05-04 18:12 | 47.97541 | 22.28963 | 36055 ft | 426 kts | 330° |
| 2026-05-04 18:13 | 48.02570 | 22.24437 | 36054 ft | 423 kts | 330° |
| 2026-05-04 18:14 | 48.10102 | 22.17576 | 36057 ft | 424 kts | 330° |
| 2026-05-04 18:14 | 48.15131 | 22.12970 | 36057 ft | 425 kts | 329° |
| 2026-05-04 18:15 | 48.25159 | 22.03740 | 36061 ft | 424 kts | 330° |
| 2026-05-04 18:16 | 48.30175 | 21.99107 | 36055 ft | 423 kts | 329° |
| 2026-05-04 18:16 | 48.31168 | 21.98188 | 36056 ft | 423 kts | 329° |
| 2026-05-04 18:17 | 48.34525 | 21.95080 | 36054 ft | 423 kts | 329° |
| 2026-05-04 18:18 | 48.42033 | 21.88109 | 36051 ft | 423 kts | 329° |
| 2026-05-04 18:18 | 48.47039 | 21.83446 | 36056 ft | 423 kts | 329° |
| 2026-05-04 18:19 | 48.54520 | 21.76465 | 36051 ft | 423 kts | 329° |
| 2026-05-04 18:19 | 48.59515 | 21.71790 | 36049 ft | 424 kts | 329° |
| 2026-05-04 18:20 | 48.64508 | 21.67102 | 36048 ft | 423 kts | 329° |
| 2026-05-04 18:20 | 48.69508 | 21.62398 | 36053 ft | 424 kts | 329° |
| 2026-05-04 18:21 | 48.74490 | 21.57700 | 36051 ft | 425 kts | 329° |
| 2026-05-04 18:21 | 48.79520 | 21.52945 | 36056 ft | 424 kts | 329° |
| 2026-05-04 18:22 | 48.84504 | 21.48222 | 36056 ft | 424 kts | 329° |
| 2026-05-04 18:22 | 48.89492 | 21.43484 | 36052 ft | 425 kts | 329° |
| 2026-05-04 18:23 | 48.94478 | 21.38740 | 36052 ft | 426 kts | 329° |
| 2026-05-04 18:23 | 48.99474 | 21.33973 | 36047 ft | 426 kts | 328° |
| 2026-05-04 18:24 | 49.04480 | 21.29182 | 36046 ft | 426 kts | 328° |
| 2026-05-04 18:24 | 49.09501 | 21.24367 | 36035 ft | 426 kts | 328° |
| 2026-05-04 18:25 | 49.14483 | 21.19579 | 36036 ft | 425 kts | 328° |
| 2026-05-04 18:25 | 49.19465 | 21.14780 | 36037 ft | 426 kts | 328° |
| 2026-05-04 18:26 | 49.24459 | 21.09956 | 36048 ft | 426 kts | 328° |
| 2026-05-04 18:26 | 49.29456 | 21.05118 | 36054 ft | 426 kts | 328° |
| 2026-05-04 18:27 | 49.34447 | 21.00196 | 36058 ft | 427 kts | 325° |
| 2026-05-04 18:27 | 49.39161 | 20.94733 | 36044 ft | 426 kts | 321° |
| 2026-05-04 18:28 | 49.43760 | 20.89050 | 36035 ft | 426 kts | 321° |
| 2026-05-04 18:28 | 49.48366 | 20.83356 | 36028 ft | 427 kts | 321° |
| 2026-05-04 18:29 | 49.53014 | 20.77656 | 36023 ft | 427 kts | 321° |
| 2026-05-04 18:29 | 49.57639 | 20.72002 | 36018 ft | 426 kts | 321° |
| 2026-05-04 18:30 | 49.64589 | 20.63506 | 36002 ft | 427 kts | 321° |
| 2026-05-04 18:31 | 49.69230 | 20.57821 | 36001 ft | 426 kts | 321° |
| 2026-05-04 18:31 | 49.73839 | 20.52159 | 36002 ft | 426 kts | 321° |
| 2026-05-04 18:32 | 49.78464 | 20.46464 | 36002 ft | 427 kts | 321° |
| 2026-05-04 18:32 | 49.83129 | 20.40706 | 35993 ft | 427 kts | 321° |
| 2026-05-04 18:33 | 49.87738 | 20.35002 | 35985 ft | 427 kts | 321° |
| 2026-05-04 18:33 | 49.92372 | 20.29253 | 35976 ft | 427 kts | 320° |
| 2026-05-04 18:34 | 49.96975 | 20.23528 | 35980 ft | 426 kts | 320° |
| 2026-05-04 18:34 | 50.01598 | 20.17764 | 35977 ft | 426 kts | 320° |
| 2026-05-04 18:35 | 50.06191 | 20.12022 | 35984 ft | 426 kts | 320° |
| 2026-05-04 18:35 | 50.10797 | 20.06249 | 35979 ft | 427 kts | 320° |
| 2026-05-04 18:36 | 50.15429 | 20.00428 | 35980 ft | 428 kts | 320° |
| 2026-05-04 18:36 | 50.20036 | 19.94624 | 35986 ft | 428 kts | 320° |
| 2026-05-04 18:37 | 50.24627 | 19.88827 | 35989 ft | 425 kts | 320° |
| 2026-05-04 18:37 | 50.29211 | 19.83021 | 35985 ft | 424 kts | 320° |
| 2026-05-04 18:38 | 50.33781 | 19.77220 | 35984 ft | 425 kts | 320° |
| 2026-05-04 18:38 | 50.38358 | 19.71397 | 35985 ft | 425 kts | 320° |
| 2026-05-04 18:39 | 50.42916 | 19.65583 | 35980 ft | 424 kts | 320° |
| 2026-05-04 18:39 | 50.47498 | 19.59724 | 35979 ft | 424 kts | 320° |
| 2026-05-04 18:40 | 50.52123 | 19.54052 | 35977 ft | 425 kts | 325° |
| 2026-05-04 18:40 | 50.57174 | 19.49250 | 35972 ft | 425 kts | 329° |
| 2026-05-04 18:41 | 50.62315 | 19.44701 | 35966 ft | 425 kts | 329° |
| 2026-05-04 18:41 | 50.67451 | 19.40073 | 35959 ft | 426 kts | 328° |
| 2026-05-04 18:42 | 50.72513 | 19.35408 | 35956 ft | 425 kts | 328° |
| 2026-05-04 18:42 | 50.77585 | 19.30670 | 35949 ft | 424 kts | 327° |
| 2026-05-04 18:43 | 50.82653 | 19.25899 | 35947 ft | 425 kts | 327° |
| 2026-05-04 18:43 | 50.87741 | 19.21091 | 35942 ft | 425 kts | 327° |
| 2026-05-04 18:44 | 50.92773 | 19.16318 | 35940 ft | 424 kts | 327° |
| 2026-05-04 18:44 | 50.97852 | 19.11487 | 35938 ft | 426 kts | 327° |
| 2026-05-04 18:45 | 51.02921 | 19.06648 | 35938 ft | 426 kts | 327° |
| 2026-05-04 18:45 | 51.07976 | 19.01817 | 35932 ft | 426 kts | 327° |
| 2026-05-04 18:46 | 51.13038 | 18.96967 | 35934 ft | 427 kts | 327° |
| 2026-05-04 18:46 | 51.18125 | 18.92079 | 35931 ft | 426 kts | 326° |
| 2026-05-04 18:47 | 51.23177 | 18.87210 | 35931 ft | 423 kts | 326° |
| 2026-05-04 18:47 | 51.28192 | 18.82367 | 35928 ft | 424 kts | 326° |
| 2026-05-04 18:48 | 51.33223 | 18.77497 | 35928 ft | 425 kts | 326° |
| 2026-05-04 18:48 | 51.37399 | 18.73445 | 35929 ft | 424 kts | 326° |
| 2026-05-04 18:49 | 51.43253 | 18.67744 | 35934 ft | 425 kts | 326° |
| 2026-05-04 18:49 | 51.48287 | 18.62828 | 35936 ft | 424 kts | 326° |
| 2026-05-04 18:50 | 51.53304 | 18.57917 | 35937 ft | 424 kts | 326° |
| 2026-05-04 18:50 | 51.58342 | 18.52968 | 35935 ft | 424 kts | 326° |
| 2026-05-04 18:51 | 51.63360 | 18.48033 | 35936 ft | 425 kts | 326° |
| 2026-05-04 18:51 | 51.68392 | 18.43076 | 35934 ft | 425 kts | 326° |
| 2026-05-04 18:52 | 51.73437 | 18.38088 | 35937 ft | 425 kts | 326° |
| 2026-05-04 18:52 | 51.78464 | 18.33104 | 35934 ft | 427 kts | 325° |
| 2026-05-04 18:53 | 51.83506 | 18.28089 | 35940 ft | 425 kts | 325° |
| 2026-05-04 18:53 | 51.88517 | 18.23092 | 35945 ft | 427 kts | 325° |
| 2026-05-04 18:54 | 51.93563 | 18.18049 | 35942 ft | 428 kts | 325° |
| 2026-05-04 18:54 | 51.98621 | 18.12985 | 35942 ft | 429 kts | 325° |
| 2026-05-04 18:55 | 52.03651 | 18.07930 | 35950 ft | 429 kts | 325° |
| 2026-05-04 18:55 | 52.11233 | 18.00283 | 35941 ft | 428 kts | 325° |
| 2026-05-04 18:56 | 52.16278 | 17.95179 | 35942 ft | 428 kts | 324° |
| 2026-05-04 18:56 | 52.21342 | 17.90045 | 35942 ft | 429 kts | 324° |
| 2026-05-04 18:57 | 52.26377 | 17.84925 | 35939 ft | 429 kts | 324° |
| 2026-05-04 18:57 | 52.31412 | 17.79794 | 35932 ft | 429 kts | 324° |
| 2026-05-04 18:58 | 52.36448 | 17.74647 | 35930 ft | 427 kts | 324° |
| 2026-05-04 18:58 | 52.41451 | 17.69516 | 35929 ft | 427 kts | 324° |
| 2026-05-04 18:59 | 52.46472 | 17.64352 | 35929 ft | 427 kts | 323° |
| 2026-05-04 18:59 | 52.51485 | 17.59183 | 35931 ft | 425 kts | 324° |
| 2026-05-04 19:00 | 52.56459 | 17.54042 | 35931 ft | 425 kts | 324° |
| 2026-05-04 19:00 | 52.61487 | 17.48829 | 35933 ft | 426 kts | 324° |
| 2026-05-04 19:01 | 52.66481 | 17.43639 | 35935 ft | 425 kts | 323° |
| 2026-05-04 19:01 | 52.71463 | 17.38443 | 35933 ft | 425 kts | 323° |
| 2026-05-04 19:02 | 52.76435 | 17.33248 | 35937 ft | 425 kts | 322° |
| 2026-05-04 19:02 | 52.81410 | 17.28041 | 35938 ft | 424 kts | 322° |
| 2026-05-04 19:03 | 52.86359 | 17.22839 | 35937 ft | 424 kts | 322° |
| 2026-05-04 19:03 | 52.91304 | 17.17629 | 35940 ft | 423 kts | 322° |
| 2026-05-04 19:04 | 52.96257 | 17.12395 | 35944 ft | 420 kts | 322° |
| 2026-05-04 19:04 | 53.01146 | 17.07213 | 35943 ft | 420 kts | 322° |
| 2026-05-04 19:05 | 53.06080 | 17.01966 | 35947 ft | 420 kts | 322° |
| 2026-05-04 19:05 | 53.10957 | 16.96776 | 35940 ft | 420 kts | 322° |
| 2026-05-04 19:06 | 53.15867 | 16.91533 | 35932 ft | 421 kts | 322° |
| 2026-05-04 19:06 | 53.20773 | 16.86278 | 35930 ft | 419 kts | 322° |
| 2026-05-04 19:07 | 53.25693 | 16.80991 | 35932 ft | 421 kts | 322° |
| 2026-05-04 19:07 | 53.30606 | 16.75701 | 35932 ft | 421 kts | 322° |
| 2026-05-04 19:08 | 53.35474 | 16.70445 | 35931 ft | 419 kts | 322° |
| 2026-05-04 19:08 | 53.40382 | 16.65122 | 35931 ft | 422 kts | 322° |
| 2026-05-04 19:09 | 53.45287 | 16.59791 | 35932 ft | 423 kts | 322° |
| 2026-05-04 19:09 | 53.50194 | 16.54452 | 35932 ft | 421 kts | 322° |
| 2026-05-04 19:10 | 53.55106 | 16.49091 | 35933 ft | 422 kts | 322° |
| 2026-05-04 19:10 | 53.60016 | 16.43717 | 35933 ft | 421 kts | 321° |
| 2026-05-04 19:11 | 53.64882 | 16.38373 | 35933 ft | 421 kts | 321° |
| 2026-05-04 19:11 | 53.69781 | 16.32975 | 35935 ft | 420 kts | 321° |
| 2026-05-04 19:12 | 53.77096 | 16.24897 | 35938 ft | 420 kts | 321° |
| 2026-05-04 19:13 | 53.81979 | 16.19477 | 35936 ft | 421 kts | 321° |
| 2026-05-04 19:13 | 53.86871 | 16.14033 | 35940 ft | 422 kts | 321° |
| 2026-05-04 19:14 | 53.91728 | 16.08617 | 35939 ft | 421 kts | 321° |
| 2026-05-04 19:14 | 53.96628 | 16.03137 | 35942 ft | 421 kts | 321° |
| 2026-05-04 19:15 | 54.01479 | 15.97698 | 35941 ft | 420 kts | 321° |
| 2026-05-04 19:15 | 54.06327 | 15.92244 | 35926 ft | 419 kts | 321° |
| 2026-05-04 19:16 | 54.11206 | 15.86737 | 35939 ft | 422 kts | 321° |
| 2026-05-04 19:16 | 54.16066 | 15.81240 | 35943 ft | 420 kts | 321° |
| 2026-05-04 19:17 | 54.20902 | 15.75743 | 35938 ft | 421 kts | 321° |
| 2026-05-04 19:17 | 54.25808 | 15.70159 | 35932 ft | 423 kts | 321° |
| 2026-05-04 19:18 | 54.30652 | 15.64644 | 35929 ft | 420 kts | 320° |
| 2026-05-04 19:18 | 54.35502 | 15.59094 | 35939 ft | 422 kts | 321° |
| 2026-05-04 19:19 | 54.40345 | 15.53537 | 35937 ft | 421 kts | 321° |
| 2026-05-04 19:19 | 54.45195 | 15.47957 | 35938 ft | 421 kts | 321° |
| 2026-05-04 19:20 | 54.50047 | 15.42354 | 35948 ft | 421 kts | 321° |
| 2026-05-04 19:20 | 54.54900 | 15.36730 | 35936 ft | 421 kts | 320° |
| 2026-05-04 19:21 | 54.59740 | 15.31109 | 35942 ft | 420 kts | 320° |
| 2026-05-04 19:21 | 54.62146 | 15.28315 | 35806 ft | 416 kts | 320° |
| 2026-05-04 19:21 | 54.64532 | 15.25542 | 35472 ft | 412 kts | 320° |
| 2026-05-04 19:21 | 54.66887 | 15.22798 | 34949 ft | 413 kts | 319° |
| 2026-05-04 19:22 | 54.69244 | 15.20045 | 34412 ft | 411 kts | 319° |
| 2026-05-04 19:22 | 54.71604 | 15.17285 | 33861 ft | 408 kts | 319° |
| 2026-05-04 19:22 | 54.73925 | 15.14567 | 33326 ft | 405 kts | 319° |
| 2026-05-04 19:22 | 54.76250 | 15.11840 | 32800 ft | 401 kts | 318° |
| 2026-05-04 19:23 | 54.78551 | 15.09137 | 32279 ft | 398 kts | 318° |
| 2026-05-04 19:23 | 54.80813 | 15.06474 | 31767 ft | 395 kts | 317° |
| 2026-05-04 19:23 | 54.83075 | 15.03807 | 31249 ft | 392 kts | 317° |
| 2026-05-04 19:23 | 54.85301 | 15.01183 | 30725 ft | 383 kts | 317° |
| 2026-05-04 19:24 | 54.87470 | 14.98631 | 30220 ft | 373 kts | 317° |
| 2026-05-04 19:24 | 54.89581 | 14.96146 | 29728 ft | 363 kts | 317° |
| 2026-05-04 19:24 | 54.91618 | 14.93740 | 29279 ft | 358 kts | 316° |
| 2026-05-04 19:24 | 54.93574 | 14.91179 | 28652 ft | 350 kts | 307° |
| 2026-05-04 19:25 | 54.95015 | 14.87880 | 27943 ft | 339 kts | 293° |
| 2026-05-04 19:25 | 54.96036 | 14.84242 | 27539 ft | 330 kts | 289° |
| 2026-05-04 19:25 | 54.96954 | 14.80661 | 27111 ft | 326 kts | 289° |
| 2026-05-04 19:25 | 54.97919 | 14.77111 | 26686 ft | 323 kts | 291° |
| 2026-05-04 19:26 | 54.98941 | 14.73661 | 26258 ft | 322 kts | 292° |
| 2026-05-04 19:26 | 54.99646 | 14.71411 | 25975 ft | 324 kts | 293° |
| 2026-05-04 19:26 | 55.01134 | 14.66809 | 25383 ft | 330 kts | 294° |
| 2026-05-04 19:26 | 55.01887 | 14.64517 | 25089 ft | 329 kts | 294° |
| 2026-05-04 19:27 | 55.03026 | 14.61068 | 24646 ft | 326 kts | 294° |
| 2026-05-04 19:27 | 55.03767 | 14.58833 | 24360 ft | 324 kts | 295° |
| 2026-05-04 19:29 | 55.12006 | 14.33760 | 21139 ft | 318 kts | 295° |
| 2026-05-04 19:29 | 55.13090 | 14.30452 | 20710 ft | 316 kts | 295° |
| 2026-05-04 19:29 | 55.14164 | 14.27171 | 20281 ft | 314 kts | 295° |
| 2026-05-04 19:29 | 55.15245 | 14.23863 | 19857 ft | 311 kts | 295° |
| 2026-05-04 19:30 | 55.16310 | 14.20595 | 19432 ft | 309 kts | 295° |
| 2026-05-04 19:30 | 55.17368 | 14.17340 | 19009 ft | 307 kts | 296° |
| 2026-05-04 19:30 | 55.18405 | 14.14145 | 18596 ft | 305 kts | 296° |
| 2026-05-04 19:30 | 55.19449 | 14.10923 | 18178 ft | 303 kts | 296° |
| 2026-05-04 19:31 | 55.20478 | 14.07742 | 17768 ft | 301 kts | 296° |
| 2026-05-04 19:31 | 55.21494 | 14.04599 | 17360 ft | 299 kts | 296° |
| 2026-05-04 19:31 | 55.22517 | 14.01431 | 16951 ft | 297 kts | 296° |
| 2026-05-04 19:31 | 55.23524 | 13.98308 | 16546 ft | 295 kts | 296° |
| 2026-05-04 19:32 | 55.24525 | 13.95201 | 16142 ft | 293 kts | 296° |
| 2026-05-04 19:32 | 55.25516 | 13.92123 | 15744 ft | 292 kts | 296° |
| 2026-05-04 19:32 | 55.26514 | 13.89016 | 15338 ft | 294 kts | 296° |
| 2026-05-04 19:32 | 55.27522 | 13.85872 | 14931 ft | 295 kts | 296° |
| 2026-05-04 19:33 | 55.28518 | 13.82767 | 14527 ft | 295 kts | 296° |
| 2026-05-04 19:33 | 55.29517 | 13.79651 | 14118 ft | 292 kts | 296° |
| 2026-05-04 19:33 | 55.30507 | 13.76561 | 13722 ft | 290 kts | 296° |
| 2026-05-04 19:33 | 55.31482 | 13.73510 | 13323 ft | 288 kts | 296° |
| 2026-05-04 19:34 | 55.32451 | 13.70469 | 12926 ft | 286 kts | 296° |
| 2026-05-04 19:34 | 55.33418 | 13.67431 | 12524 ft | 283 kts | 296° |
| 2026-05-04 19:34 | 55.34372 | 13.64434 | 12139 ft | 281 kts | 296° |
| 2026-05-04 19:34 | 55.35309 | 13.61486 | 11751 ft | 279 kts | 296° |
| 2026-05-04 19:35 | 55.36247 | 13.58526 | 11363 ft | 276 kts | 296° |
| 2026-05-04 19:35 | 55.37182 | 13.55577 | 10981 ft | 274 kts | 296° |
| 2026-05-04 19:35 | 55.38094 | 13.52694 | 10628 ft | 272 kts | 296° |
| 2026-05-04 19:35 | 55.39012 | 13.49791 | 10210 ft | 269 kts | 296° |
| 2026-05-04 19:36 | 55.39894 | 13.47002 | 9975 ft | 255 kts | 296° |
| 2026-05-04 19:36 | 55.40743 | 13.44316 | 9919 ft | 248 kts | 296° |
| 2026-05-04 19:36 | 55.41582 | 13.41645 | 9714 ft | 257 kts | 296° |
| 2026-05-04 19:36 | 55.42465 | 13.38826 | 9263 ft | 264 kts | 296° |
| 2026-05-04 19:37 | 55.43342 | 13.36038 | 8914 ft | 261 kts | 297° |
| 2026-05-04 19:37 | 55.44212 | 13.33273 | 8568 ft | 257 kts | 296° |
| 2026-05-04 19:37 | 55.45061 | 13.30576 | 8268 ft | 250 kts | 296° |
| 2026-05-04 19:37 | 55.45784 | 13.27834 | 7983 ft | 247 kts | 285° |
| 2026-05-04 19:38 | 55.45954 | 13.24850 | 7947 ft | 242 kts | 265° |
| 2026-05-04 19:38 | 55.45742 | 13.21902 | 7935 ft | 247 kts | 262° |
| 2026-05-04 19:38 | 55.45506 | 13.18889 | 7934 ft | 248 kts | 263° |
| 2026-05-04 19:38 | 55.45301 | 13.15885 | 7946 ft | 248 kts | 264° |
| 2026-05-04 19:39 | 55.45401 | 13.12909 | 7940 ft | 249 kts | 288° |
| 2026-05-04 19:39 | 55.46247 | 13.10207 | 7954 ft | 251 kts | 302° |
| 2026-05-04 19:39 | 55.47358 | 13.07855 | 7932 ft | 254 kts | 315° |
| 2026-05-04 19:39 | 55.48772 | 13.05975 | 7952 ft | 256 kts | 322° |
| 2026-05-04 19:40 | 55.50268 | 13.04250 | 7845 ft | 258 kts | 322° |
| 2026-05-04 19:40 | 55.51751 | 13.02500 | 7540 ft | 254 kts | 322° |
| 2026-05-04 19:40 | 55.53157 | 13.00774 | 7240 ft | 244 kts | 321° |
| 2026-05-04 19:40 | 55.54507 | 12.99075 | 6961 ft | 236 kts | 321° |
| 2026-05-04 19:41 | 55.55820 | 12.97405 | 6638 ft | 229 kts | 320° |
| 2026-05-04 19:41 | 55.57091 | 12.95790 | 6405 ft | 221 kts | 320° |
| 2026-05-04 19:41 | 55.58338 | 12.94203 | 6123 ft | 221 kts | 321° |
| 2026-05-04 19:41 | 55.59577 | 12.92624 | 5866 ft | 218 kts | 321° |
| 2026-05-04 19:42 | 55.60820 | 12.91116 | 5564 ft | 219 kts | 327° |
| 2026-05-04 19:42 | 55.62250 | 12.90239 | 5280 ft | 225 kts | 354° |
| 2026-05-04 19:42 | 55.63793 | 12.90752 | 5009 ft | 230 kts | 21° |
| 2026-05-04 19:42 | 55.65150 | 12.92289 | 4712 ft | 234 kts | 36° |
| 2026-05-04 19:43 | 55.66370 | 12.94181 | 4430 ft | 234 kts | 39° |
| 2026-05-04 19:43 | 55.67602 | 12.96041 | 4170 ft | 229 kts | 30° |
| 2026-05-04 19:43 | 55.69004 | 12.97059 | 4046 ft | 212 kts | 0° |
| 2026-05-04 19:43 | 55.70430 | 12.96751 | 4000 ft | 209 kts | 339° |
| 2026-05-04 19:44 | 55.71753 | 12.95686 | 3957 ft | 206 kts | 324° |
| 2026-05-04 19:44 | 55.72734 | 12.93975 | 3934 ft | 194 kts | 300° |
| 2026-05-04 19:44 | 55.73342 | 12.91899 | 3658 ft | 192 kts | 300° |
| 2026-05-04 19:44 | 55.74076 | 12.89950 | 3439 ft | 186 kts | 305° |
| 2026-05-04 19:45 | 55.74690 | 12.88019 | 3197 ft | 180 kts | 281° |
| 2026-05-04 19:45 | 55.74559 | 12.85895 | 3066 ft | 171 kts | 256° |
| 2026-05-04 19:45 | 55.74175 | 12.83918 | 2953 ft | 167 kts | 255° |
| 2026-05-04 19:45 | 55.73533 | 12.82130 | 2719 ft | 181 kts | 224° |
| 2026-05-04 19:46 | 55.72519 | 12.80846 | 2448 ft | 177 kts | 221° |
| 2026-05-04 19:46 | 55.71574 | 12.79470 | 2215 ft | 174 kts | 226° |
| 2026-05-04 19:46 | 55.70650 | 12.78041 | 2003 ft | 180 kts | 226° |
| 2026-05-04 19:46 | 55.69723 | 12.76618 | 1947 ft | 175 kts | 226° |
| 2026-05-04 19:47 | 55.68800 | 12.75192 | 1990 ft | 172 kts | 226° |
| 2026-05-04 19:47 | 55.67920 | 12.73833 | 1784 ft | 162 kts | 226° |
| 2026-05-04 19:47 | 55.67092 | 12.72550 | 1591 ft | 159 kts | 226° |
| 2026-05-04 19:47 | 55.66251 | 12.71244 | 1365 ft | 160 kts | 226° |
| 2026-05-04 19:48 | 55.65427 | 12.69967 | 1138 ft | 159 kts | 226° |
| 2026-05-04 19:48 | 55.64578 | 12.68649 | 922 ft | 162 kts | 225° |
| 2026-05-04 19:48 | 55.63757 | 12.67379 | 683 ft | 157 kts | 225° |
| 2026-05-04 19:48 | 55.62955 | 12.66136 | 514 ft | 152 kts | 225° |
| 2026-05-04 19:49 | 55.62142 | 12.64870 | 280 ft | 155 kts | 224° |
| 2026-05-04 19:49 | 55.61334 | 12.63629 | 92 ft | 151 kts | 224° |
| 2026-05-04 19:49 | 55.60636 | 12.62539 | 16 ft | 103 kts | 223° |
| 2026-05-04 19:49 | 55.60249 | 12.61944 | 14 ft | 53 kts | 221° |
| 2026-05-04 19:50 | 55.60025 | 12.61595 | 12 ft | 18 kts | 238° |
| 2026-05-04 19:50 | 55.60020 | 12.61525 | 12 ft | 2 kts | 287° |
| 2026-05-04 19:50 | 55.60028 | 12.61497 | 12 ft | 2 kts | 303° |
| 2026-05-04 19:50 | 55.60039 | 12.61472 | 12 ft | 2 kts | 313° |
| 2026-05-04 19:51 | 55.60043 | 12.61466 | 12 ft | 0 kts | 315° |
| 2026-05-04 19:52 | 55.60060 | 12.61443 | 12 ft | 5 kts | 333° |
| 2026-05-04 19:52 | 55.60107 | 12.61470 | 12 ft | 10 kts | 44° |
| 2026-05-04 19:52 | 55.60171 | 12.61570 | 12 ft | 14 kts | 41° |
| 2026-05-04 19:52 | 55.60257 | 12.61704 | 14 ft | 17 kts | 42° |
| 2026-05-04 19:53 | 55.60347 | 12.61843 | 16 ft | 16 kts | 41° |
| 2026-05-04 19:53 | 55.60430 | 12.61971 | 16 ft | 15 kts | 41° |
| 2026-05-04 19:53 | 55.60509 | 12.62093 | 16 ft | 14 kts | 41° |
| 2026-05-04 19:53 | 55.60584 | 12.62207 | 16 ft | 13 kts | 41° |
| 2026-05-04 19:54 | 55.60655 | 12.62317 | 16 ft | 14 kts | 37° |
| 2026-05-04 19:54 | 55.60767 | 12.62398 | 18 ft | 20 kts | 21° |
| 2026-05-04 19:54 | 55.60896 | 12.62565 | 20 ft | 23 kts | 41° |
| 2026-05-04 19:54 | 55.61013 | 12.62747 | 23 ft | 21 kts | 41° |
| 2026-05-04 19:55 | 55.61114 | 12.62902 | 23 ft | 15 kts | 41° |
| 2026-05-04 19:55 | 55.61179 | 12.63003 | 22 ft | 12 kts | 41° |
| 2026-05-04 19:55 | 55.61258 | 12.63125 | 21 ft | 17 kts | 41° |
| 2026-05-04 19:55 | 55.61353 | 12.63270 | 22 ft | 19 kts | 41° |
| 2026-05-04 19:56 | 55.61460 | 12.63438 | 22 ft | 22 kts | 41° |
| 2026-05-04 19:56 | 55.61571 | 12.63609 | 24 ft | 15 kts | 41° |
| 2026-05-04 19:56 | 55.61609 | 12.63668 | 24 ft | 0 kts | 41° |
| 2026-05-04 19:56 | 55.61612 | 12.63673 | 25 ft | 0 kts | 41° |
| 2026-05-04 19:59 | 55.61617 | 12.63680 | 25 ft | 3 kts | 41° |
| 2026-05-04 19:59 | 55.61649 | 12.63730 | 24 ft | 10 kts | 41° |
| 2026-05-04 20:00 | 55.61731 | 12.63855 | 22 ft | 20 kts | 41° |
| 2026-05-04 20:00 | 55.61849 | 12.64037 | 21 ft | 21 kts | 41° |
| 2026-05-04 20:00 | 55.61936 | 12.64155 | 19 ft | 10 kts | 94° |
| 2026-05-04 20:00 | 55.61938 | 12.64270 | 18 ft | 9 kts | 76° |
| 2026-05-04 20:01 | 55.61947 | 12.64349 | 16 ft | 0 kts | 79° |
| 2026-05-04 20:01 | 55.61947 | 12.64350 | 16 ft | 0 kts | 79° |
| 2026-05-04 20:01 | 55.61958 | 12.64417 | 16 ft | 9 kts | 67° |
| 2026-05-04 20:02 | 55.62002 | 12.64489 | 16 ft | 7 kts | 56° |
| 2026-05-04 20:02 | 55.62047 | 12.64589 | 16 ft | 12 kts | 30° |
| 2026-05-04 20:02 | 55.62121 | 12.64668 | 16 ft | 14 kts | 33° |
| 2026-05-04 20:02 | 55.62196 | 12.64757 | 16 ft | 0 kts | 32° |
| 2026-05-04 20:04 | 55.62199 | 12.64760 | 16 ft | 1 kts | 32° |
| 2026-05-04 20:04 | 55.62240 | 12.64808 | 16 ft | 12 kts | 34° |
| 2026-05-04 20:04 | 55.62296 | 12.64875 | 16 ft | 3 kts | 35° |
| 2026-05-04 20:04 | 55.62313 | 12.64902 | 17 ft | 5 kts | 50° |
| 2026-05-04 20:05 | 55.62305 | 12.64998 | 18 ft | 12 kts | 123° |
| 2026-05-04 20:05 | 55.62264 | 12.65109 | 18 ft | 9 kts | 123° |
| 2026-05-04 20:05 | 55.62244 | 12.65166 | 17 ft | 0 kts | 93° |